Time;durP1;ratioP1;P1;durP2;ratioP2;P2;SDS_P1;SDS_P2;PMS_P1;PMS_P2;Temp;Humidity;BMP_temperature;BMP_pressure;BME280_temperature;BME280_humidity;BME280_pressure;Samples;Min_cycle;Max_cycle;Signal;HPM_P1;HPM_P2
2022/06/28 00:00:32;;;;;;;4.95;1.73;;;10.30;99.90;;;;;;5105398;28;20024;-90
2022/06/28 00:02:58;;;;;;;3.92;1.10;;;10.40;99.90;;;;;;5104860;28;20042;-89
2022/06/28 00:05:24;;;;;;;6.10;1.40;;;10.40;99.90;;;;;;5106430;28;20047;-92
2022/06/28 00:07:49;;;;;;;6.78;1.50;;;10.40;99.90;;;;;;5106238;28;20122;-91
2022/06/28 00:10:16;;;;;;;5.53;1.15;;;10.40;99.90;;;;;;5106883;28;20551;-92
2022/06/28 00:12:42;;;;;;;6.88;1.40;;;10.50;99.90;;;;;;5106980;28;20016;-92
2022/06/28 00:17:55;;;;;;;6.05;1.50;;;10.40;99.90;;;;;;5106850;28;20073;-90
2022/06/28 00:20:21;;;;;;;6.30;1.15;;;10.40;99.90;;;;;;5104629;28;20020;-90
2022/06/28 00:22:47;;;;;;;3.97;1.55;;;10.30;99.90;;;;;;5104288;28;20024;-90
2022/06/28 00:25:12;;;;;;;14.52;2.03;;;10.30;99.90;;;;;;5105720;28;20039;-90
2022/06/28 00:27:39;;;;;;;4.55;1.00;;;10.20;99.90;;;;;;5106309;28;20019;-91
2022/06/28 00:30:05;;;;;;;7.13;1.33;;;10.10;99.90;;;;;;5104452;28;20020;-90
2022/06/28 00:32:32;;;;;;;7.07;1.58;;;10.10;99.90;;;;;;5104594;28;20035;-91
2022/06/28 00:35:02;;;;;;;7.93;1.08;;;10.20;99.90;;;;;;5103632;28;20487;-91
2022/06/28 00:37:28;;;;;;;5.05;1.10;;;10.20;99.90;;;;;;5107621;28;20016;-91
2022/06/28 00:39:54;;;;;;;10.18;1.33;;;10.20;99.90;;;;;;5107001;28;20046;-90
2022/06/28 00:42:21;;;;;;;7.38;1.27;;;10.20;99.90;;;;;;5109197;28;20119;-90
2022/06/28 00:44:46;;;;;;;8.68;1.88;;;10.20;99.90;;;;;;5104695;28;20036;-89
2022/06/28 00:47:13;;;;;;;4.25;1.23;;;10.20;99.90;;;;;;5104724;28;20012;-90
2022/06/28 00:49:42;;;;;;;9.30;1.52;;;10.20;99.90;;;;;;5114304;28;20026;-90
2022/06/28 00:52:10;;;;;;;9.55;1.55;;;10.30;99.90;;;;;;5112077;28;20020;-89
2022/06/28 00:54:36;;;;;;;7.63;1.92;;;10.30;99.90;;;;;;5106264;28;20067;-89
2022/06/28 00:57:03;;;;;;;12.63;1.83;;;10.40;99.90;;;;;;5103510;28;20020;-89
2022/06/28 00:59:29;;;;;;;6.13;1.75;;;10.40;99.90;;;;;;5103762;28;20052;-90
2022/06/28 01:01:59;;;;;;;5.13;1.30;;;10.40;99.90;;;;;;5111571;28;20223;-90
2022/06/28 01:04:26;;;;;;;;;;;10.40;99.90;;;;;;5107121;28;20028;-90
2022/06/28 01:06:53;;;;;;;3.35;1.13;;;10.40;99.90;;;;;;5105524;28;19919;-90
2022/06/28 01:09:19;;;;;;;8.32;1.75;;;10.40;99.90;;;;;;5106888;28;20026;-91
2022/06/28 01:11:45;;;;;;;3.88;1.55;;;10.50;99.90;;;;;;5106593;28;20107;-92
2022/06/28 01:14:10;;;;;;;11.00;1.40;;;10.60;99.90;;;;;;5106058;28;20425;-91
2022/06/28 01:16:37;;;;;;;11.80;2.30;;;10.60;99.90;;;;;;5108570;28;20039;-91
2022/06/28 01:19:04;;;;;;;12.45;1.50;;;10.70;99.90;;;;;;5106534;28;20027;-92
2022/06/28 01:21:32;;;;;;;11.68;1.65;;;10.80;99.90;;;;;;5103741;28;20023;-88
2022/06/28 01:23:58;;;;;;;9.10;1.42;;;10.80;99.90;;;;;;5104756;28;20020;-92
2022/06/28 01:26:25;;;;;;;8.98;1.33;;;10.90;99.90;;;;;;5104772;28;20031;-92
2022/06/28 01:28:53;;;;;;;9.05;1.95;;;11.00;99.90;;;;;;5103374;28;20024;-92
2022/06/28 01:31:20;;;;;;;10.73;1.45;;;11.00;99.90;;;;;;5109245;28;20019;-90
2022/06/28 01:33:46;;;;;;;12.15;2.05;;;11.10;99.90;;;;;;5103396;28;20024;-91
2022/06/28 01:36:12;;;;;;;7.15;1.45;;;11.10;99.90;;;;;;5103156;28;20030;-92
2022/06/28 01:38:39;;;;;;;5.40;1.30;;;11.20;99.90;;;;;;5101527;28;20081;-92
2022/06/28 01:41:06;;;;;;;7.05;1.60;;;11.20;99.90;;;;;;5106050;28;20366;-92
2022/06/28 01:43:33;;;;;;;5.22;1.35;;;11.10;99.90;;;;;;5105469;28;20208;-92
2022/06/28 01:45:59;;;;;;;7.45;1.30;;;11.10;99.90;;;;;;5101797;28;20028;-91
2022/06/28 01:48:25;;;;;;;11.55;2.25;;;11.00;99.90;;;;;;5103043;28;20016;-91
2022/06/28 01:50:52;;;;;;;8.10;1.40;;;11.00;99.90;;;;;;5103613;28;20047;-92
2022/06/28 01:53:19;;;;;;;8.10;1.30;;;11.00;99.90;;;;;;5102356;28;20092;-92
2022/06/28 01:55:46;;;;;;;12.10;2.20;;;11.00;99.90;;;;;;5104631;28;20110;-91
2022/06/28 01:58:12;;;;;;;8.05;1.85;;;11.00;99.90;;;;;;5107347;28;20019;-91
2022/06/28 02:00:38;;;;;;;6.45;1.23;;;11.00;99.90;;;;;;5105434;28;20012;-91
2022/06/28 02:03:04;;;;;;;11.80;1.65;;;11.00;99.90;;;;;;5104632;28;20532;-91
2022/06/28 02:05:30;;;;;;;15.70;1.73;;;11.00;99.90;;;;;;5103158;28;20107;-91
2022/06/28 02:07:56;;;;;;;12.25;1.90;;;11.10;99.90;;;;;;5105929;28;20038;-90
2022/06/28 02:10:22;;;;;;;6.13;1.50;;;11.10;99.90;;;;;;5105781;28;20465;-91
2022/06/28 02:12:48;;;;;;;12.95;1.77;;;11.10;99.90;;;;;;5102169;28;20460;-91
2022/06/28 02:15:15;;;;;;;15.40;1.95;;;11.10;99.90;;;;;;5105428;28;20085;-90
2022/06/28 02:17:44;;;;;;;12.57;1.50;;;11.20;99.90;;;;;;5102522;28;20050;-91
2022/06/28 02:20:12;;;;;;;9.75;1.48;;;11.20;99.90;;;;;;5104556;28;20091;-91
2022/06/28 02:22:38;;;;;;;8.27;1.40;;;11.20;99.90;;;;;;5107290;28;20016;-90
2022/06/28 02:25:04;;;;;;;12.63;2.28;;;11.30;99.90;;;;;;5109453;28;20637;-91
2022/06/28 02:27:30;;;;;;;7.65;2.25;;;11.30;99.90;;;;;;5104946;28;20160;-90
2022/06/28 02:29:56;;;;;;;15.20;1.90;;;11.30;99.90;;;;;;5104674;28;20061;-91
2022/06/28 02:32:21;;;;;;;10.15;1.48;;;11.30;99.90;;;;;;5105284;28;20020;-91
2022/06/28 02:40:22;;;;;;;6.95;1.23;;;11.40;99.90;;;;;;5128955;28;20075;-90
2022/06/28 02:42:58;;;;;;;7.32;1.33;;;11.40;99.90;;;;;;5124310;28;20062;-90
2022/06/28 02:45:26;;;;;;;5.43;1.08;;;11.30;99.90;;;;;;5115345;28;20078;-91
2022/06/28 02:47:53;;;;;;;7.35;1.83;;;11.30;99.90;;;;;;5106378;28;20035;-91
2022/06/28 02:50:19;;;;;;;5.13;1.08;;;11.20;99.90;;;;;;5104029;28;20052;-91
2022/06/28 02:52:45;;;;;;;10.35;2.38;;;11.10;99.90;;;;;;5101148;28;20047;-91
2022/06/28 02:55:11;;;;;;;8.93;2.05;;;11.10;99.90;;;;;;5100440;28;20032;-90
2022/06/28 02:57:38;;;;;;;8.02;1.23;;;11.00;99.90;;;;;;5101872;28;20024;-90
2022/06/28 03:00:10;;;;;;;7.57;1.52;;;10.90;99.90;;;;;;5100566;28;20046;-90
2022/06/28 03:02:37;;;;;;;6.00;1.60;;;10.90;99.90;;;;;;5100905;28;20020;-90
2022/06/28 03:05:07;;;;;;;5.97;1.10;;;10.90;99.90;;;;;;5102155;28;20032;-90
2022/06/28 03:07:33;;;;;;;6.60;1.60;;;10.90;99.90;;;;;;5104950;28;20032;-89
2022/06/28 03:09:59;;;;;;;9.68;1.67;;;10.90;99.90;;;;;;5100055;28;20030;-90
2022/06/28 03:12:25;;;;;;;10.88;2.00;;;10.90;99.90;;;;;;5104006;28;20042;-90
2022/06/28 03:14:51;;;;;;;10.25;1.83;;;10.90;99.90;;;;;;5106804;28;20103;-90
2022/06/28 03:17:17;;;;;;;9.70;1.88;;;10.90;99.90;;;;;;5102313;28;20024;-90
2022/06/28 03:19:43;;;;;;;10.10;1.20;;;10.90;99.90;;;;;;5105362;28;20020;-90
2022/06/28 03:22:09;;;;;;;8.88;1.88;;;10.90;99.90;;;;;;5110743;28;20024;-90
2022/06/28 03:24:35;;;;;;;6.00;2.00;;;10.80;99.90;;;;;;5107979;28;20042;-90
2022/06/28 03:27:01;;;;;;;7.15;1.65;;;10.80;99.90;;;;;;5107428;28;20021;-90
2022/06/28 03:29:27;;;;;;;13.13;1.92;;;10.80;99.90;;;;;;5108059;28;20072;-90
2022/06/28 03:31:52;;;;;;;6.28;1.48;;;10.80;99.90;;;;;;5105514;28;20023;-90
2022/06/28 03:34:19;;;;;;;5.32;1.70;;;10.70;99.90;;;;;;5104213;28;20117;-90
2022/06/28 03:36:48;;;;;;;13.40;1.60;;;10.80;99.90;;;;;;5105822;28;20028;-90
2022/06/28 03:39:14;;;;;;;11.82;2.13;;;10.80;99.90;;;;;;5103165;28;20160;-89
2022/06/28 03:41:40;;;;;;;6.63;1.58;;;10.80;99.90;;;;;;5108810;28;20019;-90
2022/06/28 03:44:05;;;;;;;10.00;1.95;;;10.80;99.90;;;;;;5113275;28;20045;-91
2022/06/28 03:46:31;;;;;;;13.38;1.55;;;10.80;99.90;;;;;;5108635;28;20114;-90
2022/06/28 03:48:57;;;;;;;6.25;1.27;;;10.70;99.90;;;;;;5112581;28;20030;-90
2022/06/28 03:51:23;;;;;;;10.85;2.10;;;10.70;99.90;;;;;;5102805;28;20032;-90
2022/06/28 03:53:49;;;;;;;15.02;1.85;;;10.70;99.90;;;;;;5105435;28;20031;-90
2022/06/28 03:56:15;;;;;;;5.30;1.98;;;10.70;99.90;;;;;;5106253;28;20019;-91
2022/06/28 03:58:40;;;;;;;9.45;2.10;;;10.60;99.90;;;;;;5108082;28;20035;-90
2022/06/28 04:01:06;;;;;;;7.00;1.45;;;10.60;99.90;;;;;;5107971;28;20027;-90
2022/06/28 04:03:34;;;;;;;7.20;2.38;;;10.60;99.90;;;;;;5108935;28;20020;-90
2022/06/28 04:06:00;;;;;;;10.95;1.75;;;10.60;99.90;;;;;;5108033;28;20048;-90
2022/06/28 04:08:26;;;;;;;9.27;1.67;;;10.60;99.90;;;;;;5104604;28;20469;-90
2022/06/28 04:13:37;;;;;;;21.48;3.88;;;10.60;99.90;;;;;;5108038;28;20066;-89
2022/06/28 04:16:03;;;;;;;12.27;2.03;;;10.60;99.90;;;;;;5104796;28;20024;-88
2022/06/28 04:18:29;;;;;;;13.13;2.15;;;10.60;99.90;;;;;;5105079;28;20020;-89
2022/06/28 04:20:56;;;;;;;11.73;2.35;;;10.60;99.90;;;;;;5106104;28;20069;-89
2022/06/28 04:23:21;;;;;;;8.40;1.70;;;10.60;99.90;;;;;;5101320;28;20057;-89
2022/06/28 04:25:47;;;;;;;14.88;1.77;;;10.70;99.90;;;;;;5104729;28;20035;-89
2022/06/28 04:28:13;;;;;;;15.13;2.30;;;10.70;99.90;;;;;;5105638;28;20027;-89
2022/06/28 04:30:38;;;;;;;16.17;2.55;;;10.70;99.90;;;;;;5103783;28;20116;-89
2022/06/28 04:33:04;;;;;;;10.88;1.90;;;10.70;99.90;;;;;;5105634;28;20066;-89
2022/06/28 04:35:30;;;;;;;10.43;1.65;;;10.80;99.90;;;;;;5105394;28;20027;-90
2022/06/28 04:37:56;;;;;;;19.33;2.72;;;10.80;99.90;;;;;;5104886;28;20024;-89
2022/06/28 04:40:22;;;;;;;19.45;2.85;;;10.90;99.90;;;;;;5103180;28;20028;-91
2022/06/28 04:42:47;;;;;;;9.73;2.25;;;10.90;99.90;;;;;;5106230;28;20024;-90
2022/06/28 04:45:13;;;;;;;8.88;2.00;;;11.00;99.90;;;;;;5096056;28;20046;-90
2022/06/28 04:47:39;;;;;;;12.35;2.13;;;11.00;99.90;;;;;;5102609;28;20119;-90
2022/06/28 04:50:05;;;;;;;12.70;2.72;;;11.10;99.90;;;;;;5101944;28;20023;-89
2022/06/28 04:52:31;;;;;;;15.30;1.80;;;11.10;99.90;;;;;;5104004;28;20020;-90
2022/06/28 04:54:56;;;;;;;16.08;2.78;;;11.20;99.90;;;;;;5103166;28;20034;-89
2022/06/28 04:57:22;;;;;;;11.15;1.83;;;11.20;99.90;;;;;;5104822;28;20023;-89
2022/06/28 04:59:47;;;;;;;16.70;2.92;;;11.20;99.90;;;;;;5103802;28;20554;-91
2022/06/28 05:02:13;;;;;;;15.88;2.78;;;11.30;99.90;;;;;;5103079;28;20142;-91
2022/06/28 05:04:39;;;;;;;14.25;3.00;;;11.30;99.90;;;;;;5109950;28;20087;-91
2022/06/28 05:07:04;;;;;;;12.25;1.77;;;11.30;99.90;;;;;;5109335;28;20048;-92
2022/06/28 05:09:30;;;;;;;14.07;2.83;;;11.40;99.90;;;;;;5106080;28;20497;-91
2022/06/28 05:11:56;;;;;;;9.80;1.58;;;11.40;99.90;;;;;;5105931;28;20540;-91
2022/06/28 05:14:21;;;;;;;14.38;3.50;;;11.40;99.90;;;;;;5105690;28;20025;-90
2022/06/28 05:16:47;;;;;;;11.63;2.28;;;11.40;99.90;;;;;;5102558;28;20024;-91
2022/06/28 05:19:13;;;;;;;14.25;2.47;;;11.40;99.90;;;;;;5105132;28;20020;-91
2022/06/28 05:21:38;;;;;;;15.50;2.20;;;11.40;99.90;;;;;;5102536;28;20045;-90
2022/06/28 05:24:05;;;;;;;11.45;2.10;;;11.40;99.90;;;;;;5106303;28;20381;-90
2022/06/28 05:26:30;;;;;;;17.63;2.17;;;11.50;99.90;;;;;;5103666;28;20023;-90
2022/06/28 05:28:56;;;;;;;11.10;1.92;;;11.50;99.90;;;;;;5102291;28;20042;-91
2022/06/28 05:31:22;;;;;;;12.75;2.55;;;11.50;99.90;;;;;;5102512;28;20016;-90
2022/06/28 05:33:48;;;;;;;15.93;2.17;;;11.60;99.90;;;;;;5102485;28;20032;-91
2022/06/28 05:36:14;;;;;;;16.20;2.33;;;11.60;99.90;;;;;;5104974;28;20023;-91
2022/06/28 05:38:39;;;;;;;11.77;2.63;;;11.70;99.90;;;;;;5106033;28;20024;-90
2022/06/28 05:41:05;;;;;;;11.90;1.67;;;11.70;99.90;;;;;;5102843;28;20128;-90
2022/06/28 05:43:31;;;;;;;14.07;2.08;;;11.70;99.90;;;;;;5102705;28;20477;-90
2022/06/28 05:45:56;;;;;;;22.83;2.30;;;11.70;99.90;;;;;;5105803;28;20043;-90
2022/06/28 05:48:22;;;;;;;9.70;1.85;;;11.70;99.90;;;;;;5105472;28;20017;-91
2022/06/28 05:50:48;;;;;;;15.43;2.67;;;11.80;99.90;;;;;;5104009;28;20024;-90
2022/06/28 05:53:14;;;;;;;12.60;2.40;;;11.80;99.90;;;;;;5101598;28;20115;-91
2022/06/28 05:55:40;;;;;;;18.45;2.92;;;11.80;99.90;;;;;;5103222;28;20107;-91
2022/06/28 05:58:05;;;;;;;13.48;2.40;;;11.80;99.90;;;;;;5107331;28;20043;-91
2022/06/28 06:00:33;;;;;;;16.42;2.35;;;11.80;99.90;;;;;;5103383;28;20020;-91
2022/06/28 06:03:00;;;;;;;15.60;2.45;;;11.80;99.90;;;;;;5101103;28;20024;-90
2022/06/28 06:05:25;;;;;;;15.88;2.53;;;11.80;99.90;;;;;;5102480;28;20051;-90
2022/06/28 06:07:51;;;;;;;16.58;2.95;;;11.90;99.90;;;;;;5102363;28;20023;-90
2022/06/28 06:10:17;;;;;;;16.30;2.60;;;11.90;99.90;;;;;;5101941;28;20062;-90
2022/06/28 06:12:42;;;;;;;12.57;2.25;;;12.00;99.90;;;;;;5102326;28;20030;-90
2022/06/28 06:15:09;;;;;;;16.90;3.33;;;12.00;99.90;;;;;;5102206;28;20357;-90
2022/06/28 06:17:34;;;;;;;18.88;2.85;;;12.00;99.90;;;;;;5100561;28;20024;-90
2022/06/28 06:20:02;;;;;;;19.00;4.85;;;12.10;99.90;;;;;;5102374;28;20026;-90
2022/06/28 06:22:29;;;;;;;19.23;6.00;;;12.10;99.90;;;;;;5101033;28;20055;-90
2022/06/28 06:24:57;;;;;;;15.82;4.15;;;12.20;99.90;;;;;;5106530;28;20043;-90
2022/06/28 06:27:22;;;;;;;17.48;3.78;;;12.20;99.90;;;;;;5103755;28;20020;-90
2022/06/28 06:29:48;;;;;;;19.80;4.63;;;12.30;99.90;;;;;;5102071;28;20017;-91
2022/06/28 06:32:14;;;;;;;18.20;4.32;;;12.30;99.90;;;;;;5101606;28;20038;-90
2022/06/28 06:34:40;;;;;;;19.40;5.22;;;12.30;99.90;;;;;;5102370;28;20035;-90
2022/06/28 06:37:05;;;;;;;13.32;2.95;;;12.40;99.90;;;;;;5102793;28;20019;-90
2022/06/28 06:39:33;;;;;;;8.32;2.40;;;12.40;99.90;;;;;;5098986;28;20020;-91
2022/06/28 06:41:58;;;;;;;16.55;3.40;;;12.50;99.90;;;;;;5099595;28;20431;-91
2022/06/28 06:44:25;;;;;;;22.35;5.85;;;12.60;99.90;;;;;;5099951;28;20035;-91
2022/06/28 06:46:51;;;;;;;16.48;4.13;;;12.60;99.90;;;;;;5100026;28;20028;-91
2022/06/28 06:49:17;;;;;;;14.60;2.90;;;12.70;99.90;;;;;;5104115;28;20012;-91
2022/06/28 06:51:45;;;;;;;16.88;3.20;;;12.70;99.90;;;;;;5117814;28;20030;-90
2022/06/28 06:54:14;;;;;;;27.63;4.57;;;12.70;99.90;;;;;;5112568;28;20076;-90
2022/06/28 06:56:41;;;;;;;11.83;2.27;;;12.70;99.90;;;;;;5103318;28;20147;-91
2022/06/28 06:59:07;;;;;;;14.73;2.88;;;12.80;99.90;;;;;;5105838;28;20316;-92
2022/06/28 07:01:34;;;;;;;17.30;2.70;;;12.90;99.90;;;;;;5106463;28;20020;-90
2022/06/28 07:04:03;;;;;;;18.15;3.67;;;13.00;99.90;;;;;;5108145;28;20031;-91
2022/06/28 07:06:29;;;;;;;11.60;2.17;;;13.00;99.90;;;;;;5108118;28;20481;-89
2022/06/28 07:08:55;;;;;;;17.92;3.25;;;13.10;99.90;;;;;;5097456;28;20028;-89
2022/06/28 07:11:21;;;;;;;13.68;2.33;;;13.30;99.90;;;;;;5106776;28;20023;-87
2022/06/28 07:13:46;;;;;;;15.00;2.47;;;13.30;99.90;;;;;;5105199;28;20032;-91
2022/06/28 07:16:12;;;;;;;15.27;3.22;;;13.30;99.90;;;;;;5106448;28;20023;-90
2022/06/28 07:18:39;;;;;;;13.88;1.60;;;13.40;99.90;;;;;;5106522;28;20020;-89
2022/06/28 07:21:04;;;;;;;15.48;3.55;;;13.50;99.90;;;;;;5113746;28;20036;-89
2022/06/28 07:23:30;;;;;;;14.57;2.33;;;13.60;99.90;;;;;;5135367;28;20099;-89
2022/06/28 07:25:56;;;;;;;8.65;1.55;;;13.60;99.90;;;;;;5127205;28;20042;-90
2022/06/28 07:28:22;;;;;;;13.10;1.88;;;13.60;99.90;;;;;;5115154;28;20239;-89
2022/06/28 07:30:48;;;;;;;10.13;1.85;;;13.70;99.90;;;;;;5119291;28;20020;-90
2022/06/28 07:33:14;;;;;;;15.43;1.95;;;13.80;99.90;;;;;;5117970;28;20058;-89
2022/06/28 07:35:40;;;;;;;10.52;1.83;;;13.80;99.90;;;;;;5118781;28;20039;-89
2022/06/28 07:38:06;;;;;;;14.95;3.67;;;13.80;99.90;;;;;;5120093;28;20433;-89
2022/06/28 07:40:32;;;;;;;15.15;2.45;;;13.90;99.90;;;;;;5107617;28;20100;-89
2022/06/28 07:42:58;;;;;;;15.73;2.58;;;14.00;99.90;;;;;;5109420;28;20174;-89
2022/06/28 07:45:23;;;;;;;15.70;2.08;;;14.00;99.90;;;;;;5105707;28;20103;-87
2022/06/28 07:47:49;;;;;;;16.92;2.53;;;14.10;99.90;;;;;;5105008;28;20032;-89
2022/06/28 07:53:03;;;;;;;23.10;2.47;;;14.10;99.90;;;;;;5108744;28;20031;-90
2022/06/28 07:55:29;;;;;;;13.68;2.10;;;14.30;99.90;;;;;;5104730;28;20468;-89
2022/06/28 07:57:55;;;;;;;16.75;2.65;;;14.30;99.90;;;;;;5101628;28;20410;-91
2022/06/28 08:00:22;;;;;;;15.40;2.63;;;14.30;99.90;;;;;;5105690;28;20028;-91
2022/06/28 08:02:48;;;;;;;11.05;2.10;;;14.50;99.90;;;;;;5107012;28;20040;-90
2022/06/28 08:05:14;;;;;;;9.23;2.08;;;14.60;99.90;;;;;;5105813;28;20028;-90
2022/06/28 08:07:41;;;;;;;23.17;2.80;;;14.70;99.90;;;;;;5102805;28;20032;-90
2022/06/28 08:10:08;;;;;;;13.60;1.85;;;14.80;99.90;;;;;;5102847;28;20020;-91
2022/06/28 08:12:34;;;;;;;15.77;2.25;;;14.90;99.90;;;;;;5102987;28;20103;-91
2022/06/28 08:14:59;;;;;;;13.35;1.85;;;14.90;99.90;;;;;;5103969;28;20457;-91
2022/06/28 08:17:25;;;;;;;8.15;1.58;;;15.00;99.90;;;;;;5103906;28;20027;-91
2022/06/28 08:19:51;;;;;;;15.95;2.83;;;15.10;99.90;;;;;;5105490;28;20377;-91
2022/06/28 08:22:17;;;;;;;14.98;2.15;;;15.10;99.90;;;;;;5103889;28;20429;-91
2022/06/28 08:24:43;;;;;;;10.27;2.15;;;15.10;99.90;;;;;;5103347;28;20016;-90
2022/06/28 08:27:09;;;;;;;14.55;2.17;;;15.00;99.90;;;;;;5103881;28;20016;-91
2022/06/28 08:29:34;;;;;;;17.85;2.40;;;15.00;99.90;;;;;;5100966;28;20020;-90
2022/06/28 08:32:01;;;;;;;7.00;1.55;;;15.00;99.90;;;;;;5105173;28;20020;-90
2022/06/28 08:34:27;;;;;;;13.73;2.75;;;15.10;99.90;;;;;;5102917;28;20016;-90
2022/06/28 08:36:53;;;;;;;7.13;1.83;;;15.20;99.90;;;;;;5103103;28;20046;-90
2022/06/28 08:39:19;;;;;;;8.80;1.90;;;15.30;99.90;;;;;;5096865;28;20023;-91
2022/06/28 08:41:47;;;;;;;12.27;1.58;;;15.30;99.90;;;;;;5093750;28;20477;-89
2022/06/28 08:44:14;;;;;;;11.20;2.05;;;15.30;99.90;;;;;;5094001;28;20032;-90
2022/06/28 08:46:41;;;;;;;11.48;2.33;;;15.30;99.90;;;;;;5094528;28;20077;-91
2022/06/28 08:49:14;;;;;;;13.45;2.33;;;15.40;99.90;;;;;;5093515;28;20035;-89
2022/06/28 08:51:40;;;;;;;13.27;2.30;;;15.40;99.90;;;;;;5093627;28;20115;-90
2022/06/28 08:54:06;;;;;;;13.05;2.35;;;15.50;99.90;;;;;;5094105;28;20522;-89
2022/06/28 08:56:34;;;;;;;14.07;2.42;;;15.50;99.90;;;;;;5094304;28;20020;-90
2022/06/28 08:59:00;;;;;;;21.67;3.20;;;15.50;99.90;;;;;;5093744;28;20072;-92
2022/06/28 09:01:26;;;;;;;14.05;2.40;;;15.50;99.90;;;;;;5093625;28;20119;-92
2022/06/28 09:03:54;;;;;;;8.68;1.65;;;15.50;99.90;;;;;;5099538;28;20019;-89
2022/06/28 09:06:23;;;;;;;12.55;1.80;;;15.60;99.90;;;;;;5105054;28;20111;-91
2022/06/28 09:08:49;;;;;;;15.30;2.53;;;15.60;99.90;;;;;;5107284;28;20020;-92
2022/06/28 09:11:14;;;;;;;13.45;2.20;;;15.80;99.90;;;;;;5105218;28;20040;-90
2022/06/28 09:13:41;;;;;;;10.30;2.10;;;16.00;99.90;;;;;;5100215;28;20431;-91
2022/06/28 09:16:07;;;;;;;10.40;1.70;;;16.10;99.90;;;;;;5104194;28;20019;-92
2022/06/28 09:18:36;;;;;;;10.27;1.75;;;16.20;99.90;;;;;;5105152;28;20054;-91
2022/06/28 09:21:05;;;;;;;10.25;1.98;;;16.30;99.90;;;;;;5104999;28;20030;-91
2022/06/28 09:23:34;;;;;;;10.23;1.98;;;16.30;99.90;;;;;;5103060;28;20055;-91
2022/06/28 09:26:06;;;;;;;10.32;2.03;;;16.30;99.80;;;;;;5110599;28;20032;-90
2022/06/28 09:28:33;;;;;;;11.32;1.92;;;16.40;99.50;;;;;;5113070;28;20026;-91
2022/06/28 09:31:24;;;;;;;11.95;2.00;;;16.50;99.30;;;;;;5111670;28;20114;-91
2022/06/28 09:34:08;;;;;;;12.15;1.95;;;16.60;98.80;;;;;;5103540;28;20044;-93
2022/06/28 09:36:36;;;;;;;10.45;2.03;;;16.80;98.10;;;;;;5103439;28;20020;-91
2022/06/28 09:39:17;;;;;;;13.60;2.88;;;16.90;97.70;;;;;;5103399;28;20023;-93
2022/06/28 09:41:48;;;;;;;10.68;1.98;;;17.00;96.90;;;;;;5105502;28;20016;-88
2022/06/28 09:44:18;;;;;;;7.40;2.05;;;17.10;95.50;;;;;;5106790;28;20080;-89
2022/06/28 09:46:44;;;;;;;12.23;2.08;;;17.00;95.10;;;;;;5109692;28;20396;-90
2022/06/28 09:49:12;;;;;;;14.77;2.75;;;17.00;95.00;;;;;;5107807;28;20488;-91
2022/06/28 09:51:38;;;;;;;13.68;2.10;;;17.00;94.80;;;;;;5106386;28;20027;-89
2022/06/28 09:54:07;;;;;;;10.00;2.10;;;17.00;94.70;;;;;;5108228;28;20031;-89
2022/06/28 09:56:36;;;;;;;12.35;2.20;;;17.00;94.70;;;;;;5106305;28;20119;-90
2022/06/28 09:59:03;;;;;;;8.65;1.70;;;17.00;93.30;;;;;;5103378;28;20051;-90
2022/06/28 10:01:30;;;;;;;9.95;2.08;;;17.10;92.10;;;;;;5100499;28;20084;-90
2022/06/28 10:03:58;;;;;;;10.82;1.70;;;17.10;91.00;;;;;;5097997;28;20031;-91
2022/06/28 10:06:24;;;;;;;12.32;2.00;;;17.10;90.90;;;;;;5102035;28;20548;-89
2022/06/28 10:08:50;;;;;;;5.85;1.58;;;17.10;90.70;;;;;;5101908;28;20032;-89
2022/06/28 10:11:16;;;;;;;10.20;2.03;;;17.10;90.00;;;;;;5108983;28;20020;-90
2022/06/28 10:16:46;;;;;;;12.07;2.40;;;17.10;89.00;;;;;;5104596;28;20566;-89
2022/06/28 10:19:18;;;;;;;8.57;2.72;;;17.00;87.80;;;;;;5105076;28;20024;-89
2022/06/28 10:21:53;;;;;;;7.13;1.50;;;17.00;87.00;;;;;;5103128;28;20473;-89
2022/06/28 10:24:19;;;;;;;11.18;1.48;;;17.00;85.90;;;;;;5107001;28;20019;-89
2022/06/28 10:27:07;;;;;;;8.65;1.88;;;17.00;85.70;;;;;;5109021;28;20065;-89
2022/06/28 10:29:53;;;;;;;11.05;1.40;;;16.90;85.40;;;;;;5103453;28;20111;-92
2022/06/28 10:32:38;;;;;;;7.90;1.35;;;16.90;84.50;;;;;;5107665;28;20028;-90
2022/06/28 10:35:04;;;;;;;7.22;1.70;;;16.80;84.30;;;;;;5106573;28;20032;-90
2022/06/28 10:37:30;;;;;;;12.13;2.00;;;16.80;85.20;;;;;;5106720;28;20020;-90
2022/06/28 10:40:22;;;;;;;7.65;1.88;;;16.70;85.80;;;;;;5102862;28;20020;-89
2022/06/28 10:42:53;;;;;;;8.00;1.58;;;16.70;86.20;;;;;;5115891;27;20043;-90
2022/06/28 10:45:23;;;;;;;12.73;1.90;;;16.70;86.50;;;;;;5104156;28;20063;-91
2022/06/28 10:48:07;;;;;;;11.65;2.35;;;16.70;86.60;;;;;;5105880;28;20024;-91
2022/06/28 10:51:00;;;;;;;16.33;1.92;;;16.60;86.30;;;;;;5109630;28;20031;-89
2022/06/28 10:53:27;;;;;;;8.23;1.63;;;16.60;86.60;;;;;;5104867;28;20019;-91
2022/06/28 10:56:14;;;;;;;9.63;1.67;;;16.70;87.00;;;;;;5103199;28;20515;-91
2022/06/28 10:58:59;;;;;;;8.45;1.60;;;16.80;87.00;;;;;;5103689;28;20488;-90
2022/06/28 11:01:40;;;;;;;9.98;1.50;;;16.90;86.60;;;;;;5107700;28;20137;-90
2022/06/28 11:04:19;;;;;;;8.05;1.38;;;16.90;86.30;;;;;;5106168;28;20020;-90
2022/06/28 11:06:47;;;;;;;9.60;2.28;;;16.90;85.70;;;;;;5104539;28;20070;-91
2022/06/28 11:09:22;;;;;;;8.27;1.42;;;16.90;85.20;;;;;;5104444;28;20550;-91
2022/06/28 11:12:09;;;;;;;6.90;1.23;;;16.90;85.30;;;;;;5105596;28;20038;-90
2022/06/28 11:14:52;;;;;;;10.82;1.55;;;16.90;85.20;;;;;;5102679;28;20020;-90
2022/06/28 11:17:22;;;;;;;9.23;1.92;;;16.90;85.50;;;;;;5104053;27;20027;-92
2022/06/28 11:19:56;;;;;;;10.30;1.85;;;17.00;85.40;;;;;;5099757;28;20058;-90
2022/06/28 11:22:33;;;;;;;6.95;1.42;;;17.00;85.20;;;;;;5099520;28;20036;-90
2022/06/28 11:25:09;;;;;;;5.68;1.50;;;17.10;85.20;;;;;;5106963;28;20091;-91
2022/06/28 11:27:42;;;;;;;7.18;1.50;;;17.10;84.90;;;;;;5114938;28;20050;-91
2022/06/28 11:30:08;;;;;;;10.07;1.52;;;17.10;84.50;;;;;;5115300;28;20023;-90
2022/06/28 11:32:35;;;;;;;8.50;1.65;;;17.10;84.70;;;;;;5108784;28;20021;-91
2022/06/28 11:35:13;;;;;;;9.32;1.83;;;17.20;84.80;;;;;;5103492;28;20024;-91
2022/06/28 11:37:58;;;;;;;8.95;1.58;;;17.40;85.00;;;;;;5097178;28;20023;-92
2022/06/28 11:40:26;;;;;;;11.20;2.05;;;17.80;84.30;;;;;;5102287;28;20024;-90
2022/06/28 11:43:12;;;;;;;6.43;1.40;;;18.00;83.10;;;;;;5115300;28;20027;-90
2022/06/28 11:45:47;;;;;;;9.43;1.35;;;18.30;81.80;;;;;;5104498;28;20055;-90
2022/06/28 11:48:15;;;;;;;7.45;1.40;;;18.40;80.80;;;;;;5108148;28;20027;-91
2022/06/28 11:50:45;;;;;;;7.90;1.85;;;18.40;79.90;;;;;;5112046;28;20084;-92
2022/06/28 11:53:13;;;;;;;8.15;2.08;;;18.30;79.60;;;;;;5107886;28;20027;-91
2022/06/28 11:55:39;;;;;;;7.03;0.90;;;18.30;80.10;;;;;;5096830;28;20122;-91
2022/06/28 11:58:20;;;;;;;3.50;1.48;;;18.30;79.30;;;;;;5104017;28;20106;-92
2022/06/28 12:01:14;;;;;;;10.77;1.40;;;18.30;79.60;;;;;;5102420;28;20036;-91
2022/06/28 12:03:42;;;;;;;8.27;1.30;;;18.20;78.40;;;;;;5104206;28;20016;-91
2022/06/28 12:06:29;;;;;;;3.67;0.95;;;18.10;78.80;;;;;;5104493;28;20043;-92
2022/06/28 12:09:05;;;;;;;10.38;1.17;;;18.20;79.10;;;;;;5102157;28;20043;-90
2022/06/28 12:11:52;;;;;;;7.63;1.20;;;18.20;79.10;;;;;;5098812;28;20024;-92
2022/06/28 12:14:29;;;;;;;6.72;1.45;;;18.30;78.90;;;;;;5100572;28;20028;-92
2022/06/28 12:16:58;;;;;;;6.45;1.63;;;18.30;78.70;;;;;;5106486;28;20064;-91
2022/06/28 12:19:39;;;;;;;5.40;1.23;;;18.30;79.00;;;;;;5102531;28;20038;-89
2022/06/28 12:22:10;;;;;;;7.03;1.70;;;18.30;78.50;;;;;;5098983;28;20028;-90
2022/06/28 12:24:51;;;;;;;10.20;1.40;;;18.20;78.50;;;;;;5096397;28;20027;-93
2022/06/28 12:27:22;;;;;;;8.27;1.23;;;18.20;78.90;;;;;;5102175;28;20034;-90
2022/06/28 12:29:49;;;;;;;13.68;1.40;;;18.10;78.90;;;;;;5108788;28;20556;-88
2022/06/28 12:32:16;;;;;;;5.30;1.25;;;18.00;78.10;;;;;;5100218;28;20367;-91
2022/06/28 12:34:44;;;;;;;9.10;1.50;;;18.00;78.30;;;;;;5101833;28;20423;-92
2022/06/28 12:37:13;;;;;;;8.57;1.48;;;17.90;78.50;;;;;;5101380;28;20027;-91
2022/06/28 12:39:39;;;;;;;13.88;2.50;;;17.80;79.00;;;;;;5097262;28;20442;-92
2022/06/28 12:42:06;;;;;;;9.15;2.83;;;17.80;79.50;;;;;;5096997;28;20012;-90
2022/06/28 12:44:32;;;;;;;6.38;1.45;;;17.80;79.90;;;;;;5093871;28;20059;-91
2022/06/28 12:46:58;;;;;;;9.15;1.98;;;17.80;80.10;;;;;;5098181;28;20059;-89
2022/06/28 12:49:25;;;;;;;9.40;1.35;;;17.80;80.10;;;;;;5100038;28;20024;-90
2022/06/28 12:51:51;;;;;;;9.90;1.73;;;17.80;80.30;;;;;;5098577;28;20039;-91
2022/06/28 12:54:18;;;;;;;6.32;1.55;;;17.70;80.20;;;;;;5099380;28;20024;-92
2022/06/28 12:56:44;;;;;;;7.20;1.33;;;17.80;80.20;;;;;;5103031;28;20031;-91
2022/06/28 12:59:10;;;;;;;5.40;1.20;;;17.80;80.10;;;;;;5103694;28;20023;-91
2022/06/28 13:01:38;;;;;;;8.38;1.33;;;17.70;79.70;;;;;;5099718;28;20477;-92